To NAV CANADA Home Page Login to a new session Search on AWWS site Feedback and Comments Disclaimer Vers la page française équivalente Tips FAQ What's new on the site To the Forecasts and Observations / NOTAM section To "File a Flight Plan" website Publications and other links Update of the User's profile FIC Telephone Numbers My Weather Data Folder Route Weather Data Regional Weather Data Local Weather Data To the Forecasts and Observations / NOTAM section
Request Generated 04/30/2017 at 05:03:12 UTC . Weather information available at that time is displayed.

METAR/TAF

MONTREAL/PIERRE-ELLIOTT-TRUDEAU INTL/QC    

METAR CYUL 300500Z 34008KT 15SM FEW240 05/M06 A3028 RMK CI1 CI TR
SLP257=
METAR CYUL 300400Z 36011G16KT 15SM FEW240 05/M06 A3024 RMK CI1 CI TR
SLP244=
METAR CYUL 300300Z 33005KT 15SM FEW240 06/M05 A3023 RMK CI1 CI TR
SLP239=

TAF CYUL 300251Z 3003/3024 33009G19KT P6SM FEW240
FM300600 34008KT P6SM SCT040 TEMPO 3006/3009 BKN040
FM300900 02009KT P6SM SCT140
FM301400 05007KT P6SM OVC120
FM302000 07008KT P6SM -SHRA OVC070
FM302300 07008KT P6SM -SHRA BKN025 OVC050
RMK NXT FCST BY 300600Z=
Your time UTC time
Weather data provided by Environment Canada and NAV CANADA